createdAt,value
2018-12-27T00:01:40.917Z,10.97
2018-12-27T00:04:08.462Z,10.53
2018-12-27T00:06:35.735Z,12.67
2018-12-27T00:09:04.486Z,14.90
2018-12-27T00:11:31.770Z,18.63
2018-12-27T00:13:59.303Z,17.47
2018-12-27T00:16:26.586Z,14.70
2018-12-27T00:18:53.839Z,13.63
2018-12-27T00:21:21.118Z,17.00
2018-12-27T00:23:48.374Z,15.80
2018-12-27T00:26:15.714Z,13.80
2018-12-27T00:28:42.968Z,18.10
2018-12-27T00:31:10.326Z,16.20
2018-12-27T00:33:37.654Z,17.70
2018-12-27T00:36:05.274Z,20.13
2018-12-27T00:38:32.625Z,18.93
2018-12-27T00:41:00.238Z,18.20
2018-12-27T00:43:27.593Z,20.73
2018-12-27T00:45:54.927Z,18.20
2018-12-27T00:48:22.293Z,21.20
2018-12-27T00:50:49.626Z,20.00
2018-12-27T00:53:16.958Z,18.40
2018-12-27T00:55:44.394Z,18.67
2018-12-27T00:58:11.995Z,17.37
2018-12-27T01:00:39.349Z,16.43
2018-12-27T01:03:11.023Z,15.70
2018-12-27T01:05:35.753Z,19.13
2018-12-27T01:08:03.109Z,19.40
2018-12-27T01:10:30.443Z,22.93
2018-12-27T01:12:57.805Z,21.20
2018-12-27T01:15:25.387Z,20.20
2018-12-27T01:17:52.751Z,20.40
2018-12-27T01:20:20.077Z,17.90
2018-12-27T01:22:47.435Z,17.37
2018-12-27T01:25:14.771Z,14.33
2018-12-27T01:27:42.125Z,13.63
2018-12-27T01:30:09.473Z,13.50
2018-12-27T01:32:36.801Z,14.67
2018-12-27T01:35:04.152Z,10.70
2018-12-27T01:37:31.469Z,9.70
2018-12-27T01:39:58.822Z,6.77
2018-12-27T01:42:26.169Z,5.93
2018-12-27T01:44:53.523Z,7.17
2018-12-27T01:47:21.135Z,13.73
2018-12-27T01:49:48.454Z,6.03
2018-12-27T01:52:15.806Z,7.13
2018-12-27T01:54:43.389Z,6.20
2018-12-27T01:57:10.740Z,6.00
2018-12-27T01:59:38.053Z,5.77
2018-12-27T02:02:05.412Z,6.40
2018-12-27T02:04:32.733Z,4.40
2018-12-27T02:07:00.051Z,5.43
2018-12-27T02:09:27.402Z,4.00
2018-12-27T02:11:54.727Z,4.27
2018-12-27T02:14:22.338Z,3.67
2018-12-27T02:16:49.685Z,5.00
2018-12-27T02:19:17.011Z,4.13
2018-12-27T02:21:44.362Z,4.60
2018-12-27T02:24:11.686Z,3.93
2018-12-27T02:26:39.005Z,4.03
2018-12-27T02:29:06.366Z,3.87
2018-12-27T02:31:33.713Z,4.60
2018-12-27T02:34:01.155Z,5.93
2018-12-27T02:36:28.482Z,4.07
2018-12-27T02:38:55.796Z,3.90
2018-12-27T02:41:23.145Z,3.80
2018-12-27T02:43:50.473Z,3.40
2018-12-27T02:46:17.823Z,3.83
2018-12-27T02:48:45.407Z,3.53
2018-12-27T02:51:12.755Z,3.87
2018-12-27T02:53:40.106Z,4.73
2018-12-27T02:56:07.427Z,5.77
2018-12-27T02:58:34.777Z,3.13
2018-12-27T03:01:02.101Z,3.03
2018-12-27T03:03:29.442Z,3.20
2018-12-27T03:05:56.795Z,3.30
2018-12-27T03:08:24.119Z,3.70
2018-12-27T03:10:51.470Z,3.17
2018-12-27T03:13:18.790Z,2.90
2018-12-27T03:15:46.121Z,3.67
2018-12-27T03:18:13.465Z,3.20
2018-12-27T03:20:40.821Z,3.47
2018-12-27T03:23:08.139Z,5.20
2018-12-27T03:25:35.463Z,2.90
2018-12-27T03:28:02.809Z,3.43
2018-12-27T03:30:30.204Z,2.80
2018-12-27T03:32:57.558Z,3.23
2018-12-27T03:35:24.906Z,2.50
2018-12-27T03:37:52.227Z,2.93
2018-12-27T03:40:19.579Z,2.80
2018-12-27T03:42:46.899Z,2.80
2018-12-27T03:45:14.245Z,2.80
2018-12-27T03:47:41.673Z,3.00
2018-12-27T03:50:08.995Z,2.50
2018-12-27T03:52:36.319Z,2.60
2018-12-27T03:55:03.670Z,2.37
2018-12-27T03:57:31.073Z,2.30
2018-12-27T03:59:58.415Z,2.00
2018-12-27T04:02:25.764Z,2.40
2018-12-27T04:04:53.114Z,2.50
2018-12-27T04:07:20.442Z,2.20
2018-12-27T04:09:47.786Z,2.40
2018-12-27T04:12:15.110Z,2.40
2018-12-27T04:14:42.743Z,2.30
2018-12-27T04:17:09.981Z,2.57
2018-12-27T04:19:37.231Z,2.30
2018-12-27T04:22:04.761Z,2.43
2018-12-27T04:24:32.179Z,2.30
2018-12-27T04:26:59.452Z,3.40
2018-12-27T04:29:26.729Z,3.00
2018-12-27T04:31:54.271Z,2.40
2018-12-27T04:34:21.514Z,2.20
2018-12-27T04:36:49.253Z,2.37
2018-12-27T04:39:16.530Z,2.47
2018-12-27T04:41:43.766Z,2.07
2018-12-27T04:44:11.118Z,2.13
2018-12-27T04:46:38.435Z,4.43
2018-12-27T04:49:05.675Z,1.83
2018-12-27T04:51:32.941Z,2.13
2018-12-27T04:54:00.183Z,2.00
2018-12-27T04:56:27.462Z,1.70
2018-12-27T04:58:54.707Z,1.60
2018-12-27T05:01:21.982Z,2.97
2018-12-27T05:03:49.226Z,2.13
2018-12-27T05:06:16.741Z,1.77
2018-12-27T05:08:44.024Z,1.63
2018-12-27T05:11:11.330Z,2.00
2018-12-27T05:13:38.852Z,1.90
2018-12-27T05:16:06.126Z,1.77
2018-12-27T05:18:33.365Z,1.70
2018-12-27T05:21:00.634Z,1.97
2018-12-27T05:23:27.878Z,2.00
2018-12-27T05:25:55.146Z,2.03
2018-12-27T05:28:22.436Z,1.40
2018-12-27T05:30:49.665Z,1.57
2018-12-27T05:33:17.178Z,2.07
2018-12-27T05:35:44.454Z,2.17
2018-12-27T05:38:11.695Z,1.50
2018-12-27T05:40:38.959Z,1.63
2018-12-27T05:43:06.242Z,1.60
2018-12-27T05:45:33.491Z,1.70
2018-12-27T05:48:00.950Z,1.40
2018-12-27T05:50:28.194Z,1.60
2018-12-27T05:52:55.462Z,2.00
2018-12-27T05:55:22.703Z,1.60
2018-12-27T05:57:49.953Z,1.73
2018-12-27T06:00:17.217Z,1.40
2018-12-27T06:02:44.457Z,1.70
2018-12-27T06:05:11.730Z,1.57
2018-12-27T06:07:39.001Z,1.77
2018-12-27T06:10:06.245Z,1.87
2018-12-27T06:12:33.523Z,2.00
2018-12-27T06:15:01.038Z,1.43
2018-12-27T06:17:28.284Z,3.10
2018-12-27T06:19:55.553Z,2.53
2018-12-27T06:22:23.050Z,1.50
2018-12-27T06:24:50.326Z,1.40
2018-12-27T06:27:17.680Z,1.17
2018-12-27T06:29:44.918Z,1.50
2018-12-27T06:32:12.190Z,1.50
2018-12-27T06:34:41.438Z,1.83
2018-12-27T06:37:08.434Z,1.40
2018-12-27T06:39:35.745Z,1.60
2018-12-27T06:42:02.989Z,1.60
2018-12-27T06:44:30.268Z,2.23
2018-12-27T06:46:57.513Z,1.70
2018-12-27T06:49:24.782Z,1.60
2018-12-27T06:51:52.019Z,1.90
2018-12-27T06:54:19.293Z,1.97
2018-12-27T06:56:46.581Z,1.60
2018-12-27T06:59:13.886Z,1.83
2018-12-27T07:01:41.130Z,1.40
2018-12-27T07:04:08.410Z,1.60
2018-12-27T07:06:35.657Z,1.50
2018-12-27T07:09:03.727Z,1.40
2018-12-27T07:11:30.997Z,1.60
2018-12-27T07:13:58.233Z,3.53
2018-12-27T07:16:25.763Z,3.30
2018-12-27T07:18:53.031Z,1.40
2018-12-27T07:21:20.586Z,2.10
2018-12-27T07:23:47.830Z,1.80
2018-12-27T07:26:15.074Z,1.60
2018-12-27T07:28:42.346Z,1.63
2018-12-27T07:31:09.617Z,1.60
2018-12-27T07:33:36.871Z,1.70
2018-12-27T07:36:04.133Z,1.60
2018-12-27T07:38:31.630Z,1.63
2018-12-27T07:40:58.901Z,1.60
2018-12-27T07:43:26.165Z,1.57
2018-12-27T07:45:53.438Z,1.80
2018-12-27T07:48:20.682Z,1.20
2018-12-27T07:50:48.202Z,1.30
2018-12-27T07:53:15.745Z,2.07
2018-12-27T07:55:43.018Z,2.63
2018-12-27T07:58:10.293Z,1.40
2018-12-27T08:00:37.561Z,1.47
2018-12-27T08:03:04.832Z,1.40
2018-12-27T08:05:32.072Z,3.40
2018-12-27T08:07:59.346Z,1.30
2018-12-27T08:10:26.613Z,1.70
2018-12-27T08:12:53.890Z,1.60
2018-12-27T08:15:21.138Z,1.57
2018-12-27T08:17:48.402Z,1.40
2018-12-27T08:20:15.648Z,1.63
2018-12-27T08:22:42.926Z,1.50
2018-12-27T08:25:10.174Z,1.90
2018-12-27T08:27:37.702Z,1.73
2018-12-27T08:30:06.487Z,3.07
2018-12-27T08:32:33.727Z,1.57
2018-12-27T08:35:01.153Z,1.80
2018-12-27T08:37:28.394Z,1.53
2018-12-27T08:39:55.665Z,8.33
2018-12-27T08:42:22.918Z,2.40
2018-12-27T08:44:50.199Z,3.50
2018-12-27T08:47:17.438Z,1.90
2018-12-27T08:49:44.688Z,4.00
2018-12-27T08:52:12.025Z,2.23
2018-12-27T08:54:39.265Z,1.97
2018-12-27T08:57:06.540Z,3.00
2018-12-27T08:59:33.896Z,2.40
2018-12-27T09:02:01.137Z,1.60
2018-12-27T09:04:28.406Z,3.20
2018-12-27T09:06:55.686Z,5.73
2018-12-27T09:09:22.930Z,8.80
2018-12-27T09:11:50.194Z,210.33
2018-12-27T09:14:17.469Z,25.63
2018-12-27T09:16:44.749Z,19.20
2018-12-27T09:19:12.258Z,25.33
2018-12-27T09:21:39.792Z,16.10
2018-12-27T09:24:07.071Z,19.13
2018-12-27T09:26:34.318Z,20.63
2018-12-27T09:29:01.746Z,20.17
2018-12-27T09:31:29.262Z,21.80
2018-12-27T09:33:56.522Z,24.23
2018-12-27T09:36:23.799Z,19.60
2018-12-27T09:38:51.076Z,18.97
2018-12-27T09:41:18.322Z,9.57
2018-12-27T09:43:45.606Z,13.80
2018-12-27T09:46:12.855Z,14.30
2018-12-27T09:48:40.386Z,15.00
2018-12-27T09:51:07.672Z,21.47
2018-12-27T09:53:34.927Z,13.70
2018-12-27T09:56:02.468Z,11.60
2018-12-27T09:58:29.995Z,23.83
2018-12-27T10:00:57.274Z,12.80
2018-12-27T10:03:24.551Z,17.47
2018-12-27T10:05:51.849Z,14.73
2018-12-27T10:08:19.158Z,15.43
2018-12-27T10:10:46.437Z,10.90
2018-12-27T10:13:13.853Z,14.60
2018-12-27T10:15:41.411Z,14.67
2018-12-27T10:18:08.953Z,12.73
2018-12-27T10:20:36.217Z,18.17
2018-12-27T10:23:03.561Z,16.03
2018-12-27T10:25:30.801Z,9.87
2018-12-27T10:27:58.339Z,8.10
2018-12-27T10:30:26.365Z,11.13
2018-12-27T10:32:53.713Z,10.47
2018-12-27T10:35:20.998Z,11.97
2018-12-27T10:37:48.249Z,16.40
2018-12-27T10:40:15.544Z,22.07
2018-12-27T10:42:42.790Z,51.57
2018-12-27T10:45:10.080Z,42.10
2018-12-27T10:47:37.334Z,51.83
2018-12-27T10:50:06.123Z,57.47
2018-12-27T10:52:33.407Z,25.77
2018-12-27T10:55:00.651Z,12.70
2018-12-27T10:57:27.938Z,10.67
2018-12-27T10:59:55.190Z,13.40
2018-12-27T11:02:22.458Z,8.53
2018-12-27T11:04:49.782Z,7.23
2018-12-27T11:07:17.325Z,9.50
2018-12-27T11:09:44.565Z,9.80
2018-12-27T11:12:11.854Z,12.23
2018-12-27T11:14:39.098Z,14.27
2018-12-27T11:17:06.610Z,22.10
2018-12-27T11:19:33.894Z,26.53
2018-12-27T11:22:01.137Z,23.73
2018-12-27T11:24:28.493Z,22.30
2018-12-27T11:26:55.745Z,17.17
2018-12-27T11:29:23.257Z,16.33
2018-12-27T11:31:50.529Z,10.77
2018-12-27T11:34:17.806Z,8.93
2018-12-27T11:36:45.055Z,10.83
2018-12-27T11:39:12.330Z,11.10
2018-12-27T11:41:39.602Z,12.67
2018-12-27T11:44:06.882Z,8.57
2018-12-27T11:46:34.155Z,10.80
2018-12-27T11:49:01.485Z,15.70
2018-12-27T11:51:29.034Z,9.40
2018-12-27T11:53:56.285Z,12.53
2018-12-27T11:56:23.557Z,12.70
2018-12-27T11:58:50.840Z,12.07
2018-12-27T12:01:18.204Z,12.33
2018-12-27T12:03:45.699Z,12.83
2018-12-27T12:06:12.982Z,20.83
2018-12-27T12:08:40.239Z,15.47
2018-12-27T12:11:07.519Z,15.53
2018-12-27T12:13:34.801Z,14.00
2018-12-27T12:16:02.352Z,15.37
2018-12-27T12:18:29.606Z,13.57
2018-12-27T12:20:56.858Z,12.37
2018-12-27T12:23:24.133Z,13.57
2018-12-27T12:25:51.389Z,20.73
2018-12-27T12:28:18.819Z,21.30
2018-12-27T12:30:46.350Z,14.47
2018-12-27T12:33:13.611Z,19.10
2018-12-27T12:35:40.889Z,17.97
2018-12-27T12:38:08.181Z,17.07
2018-12-27T12:40:35.692Z,17.37
2018-12-27T12:43:02.983Z,31.77
2018-12-27T12:45:30.221Z,5.60
2018-12-27T12:47:57.469Z,5.73
2018-12-27T12:50:24.751Z,5.13
2018-12-27T12:52:51.999Z,5.00
2018-12-27T12:55:19.291Z,4.03
2018-12-27T12:57:46.530Z,4.87
2018-12-27T13:00:13.781Z,5.10
2018-12-27T13:02:41.295Z,5.60
2018-12-27T13:05:08.568Z,3.30
2018-12-27T13:07:35.836Z,3.20
2018-12-27T13:10:03.482Z,3.47
2018-12-27T13:12:31.004Z,3.23
2018-12-27T13:14:58.246Z,4.10
2018-12-27T13:17:25.784Z,6.40
2018-12-27T13:19:53.053Z,4.07
2018-12-27T13:22:20.585Z,2.70
2018-12-27T13:24:47.826Z,3.90
2018-12-27T13:27:15.112Z,4.30
2018-12-27T13:29:42.630Z,4.27
2018-12-27T13:32:10.377Z,5.17
2018-12-27T13:34:37.688Z,6.60
2018-12-27T13:37:05.202Z,4.03
2018-12-27T13:39:32.446Z,4.30
2018-12-27T13:41:59.721Z,4.90
2018-12-27T13:44:26.961Z,3.57
2018-12-27T13:46:54.207Z,3.93
2018-12-27T13:49:21.492Z,3.30
2018-12-27T13:51:48.988Z,4.90
2018-12-27T13:54:16.229Z,7.10
2018-12-27T13:56:43.513Z,17.47
2018-12-27T13:59:10.798Z,18.87
2018-12-27T14:01:38.135Z,15.67
2018-12-27T14:04:05.490Z,16.20
2018-12-27T14:06:33.037Z,16.30
2018-12-27T14:09:00.390Z,16.20
2018-12-27T14:11:27.638Z,16.73
2018-12-27T14:13:54.914Z,20.10
2018-12-27T14:16:22.168Z,21.40
2018-12-27T14:18:49.454Z,19.47
2018-12-27T14:21:16.967Z,21.53
2018-12-27T14:23:44.506Z,20.13
2018-12-27T14:26:11.761Z,17.37
2018-12-27T14:28:39.268Z,15.77
2018-12-27T14:31:06.542Z,19.73
2018-12-27T14:33:33.790Z,19.73
2018-12-27T14:36:01.322Z,19.97
2018-12-27T14:38:29.451Z,18.80
2018-12-27T14:40:56.736Z,19.87
2018-12-27T14:43:23.985Z,27.40
2018-12-27T14:45:51.258Z,20.27
2018-12-27T14:48:18.543Z,17.23
2018-12-27T14:50:45.818Z,17.57
2018-12-27T14:53:13.090Z,17.47
2018-12-27T14:55:40.401Z,14.17
2018-12-27T14:58:07.686Z,16.47
2018-12-27T15:00:40.622Z,20.27
2018-12-27T15:03:07.870Z,30.20
2018-12-27T15:05:35.146Z,41.90
2018-12-27T15:08:02.460Z,34.93
2018-12-27T15:10:30.015Z,24.73
2018-12-27T15:12:57.261Z,24.87
2018-12-27T15:15:24.556Z,20.40
2018-12-27T15:17:52.060Z,26.13
2018-12-27T15:20:19.339Z,22.63
2018-12-27T15:22:46.617Z,27.00
2018-12-27T15:25:14.127Z,23.13
2018-12-27T15:27:41.487Z,19.83
2018-12-27T15:30:08.838Z,19.10
2018-12-27T15:32:36.114Z,10.93
2018-12-27T15:35:03.449Z,9.30
2018-12-27T15:37:30.729Z,7.33
2018-12-27T15:39:57.974Z,9.63
2018-12-27T15:42:25.478Z,7.40
2018-12-27T15:44:52.755Z,5.60
2018-12-27T15:47:20.029Z,11.10
2018-12-27T15:49:47.331Z,4.90
2018-12-27T15:52:14.600Z,7.83
2018-12-27T15:54:41.851Z,7.30
2018-12-27T15:57:09.369Z,5.00
2018-12-27T15:59:36.610Z,5.17
2018-12-27T16:02:03.855Z,4.33
2018-12-27T16:04:31.182Z,4.53
2018-12-27T16:07:01.871Z,5.20
2018-12-27T16:09:27.446Z,3.13
2018-12-27T16:11:54.717Z,5.13
2018-12-27T16:14:21.959Z,5.40
2018-12-27T16:16:49.238Z,4.20
2018-12-27T16:19:16.481Z,4.20
2018-12-27T16:21:43.755Z,6.77
2018-12-27T16:24:11.000Z,3.73
2018-12-27T16:26:38.270Z,3.90
2018-12-27T16:29:05.518Z,7.50
2018-12-27T16:31:32.786Z,6.13
2018-12-27T16:34:00.033Z,8.50
2018-12-27T16:36:27.301Z,5.90
2018-12-27T16:38:54.544Z,5.23
2018-12-27T16:41:21.821Z,4.00
2018-12-27T16:43:49.319Z,4.30
2018-12-27T16:46:16.562Z,6.00
2018-12-27T16:48:43.842Z,5.20
2018-12-27T16:51:11.182Z,4.30
2018-12-27T16:53:38.446Z,4.30
2018-12-27T16:56:05.730Z,5.03
2018-12-27T16:58:32.973Z,4.27
2018-12-27T17:01:00.211Z,5.33
2018-12-27T17:03:27.752Z,5.57
2018-12-27T17:05:55.003Z,5.67
2018-12-27T17:08:22.265Z,4.80
2018-12-27T17:10:49.582Z,4.67
2018-12-27T17:13:16.855Z,5.73
2018-12-27T17:15:44.104Z,3.73
2018-12-27T17:18:11.627Z,3.80
2018-12-27T17:20:38.964Z,4.30
2018-12-27T17:23:06.221Z,3.93
2018-12-27T17:25:33.542Z,3.43
2018-12-27T17:28:00.986Z,3.53
2018-12-27T17:30:28.490Z,6.07
2018-12-27T17:32:56.030Z,3.50
2018-12-27T17:35:23.881Z,4.67
2018-12-27T17:37:51.509Z,4.37
2018-12-27T17:40:19.025Z,4.03
2018-12-27T17:42:46.293Z,3.93
2018-12-27T17:45:13.538Z,4.47
2018-12-27T17:47:40.869Z,6.00
2018-12-27T17:50:08.137Z,5.03
2018-12-27T17:52:35.410Z,7.40
2018-12-27T17:55:02.673Z,5.97
2018-12-27T17:57:29.919Z,7.00
2018-12-27T17:59:57.195Z,6.63
2018-12-27T18:02:24.437Z,4.63
2018-12-27T18:04:51.986Z,6.50
2018-12-27T18:07:19.494Z,4.27
2018-12-27T18:09:47.222Z,4.47
2018-12-27T18:12:14.723Z,5.47
2018-12-27T18:14:41.965Z,6.30
2018-12-27T18:17:09.244Z,5.10
2018-12-27T18:19:36.732Z,4.17
2018-12-27T18:22:04.699Z,8.93
2018-12-27T18:24:32.227Z,5.57
2018-12-27T18:26:59.499Z,3.87
2018-12-27T18:29:26.826Z,4.60
2018-12-27T18:31:54.116Z,4.10
2018-12-27T18:34:21.442Z,4.33
2018-12-27T18:36:48.682Z,4.73
2018-12-27T18:39:15.954Z,4.33
2018-12-27T18:41:43.199Z,7.00
2018-12-27T18:44:10.480Z,5.50
2018-12-27T18:46:37.753Z,8.63
2018-12-27T18:49:05.028Z,9.77
2018-12-27T18:51:32.527Z,9.40
2018-12-27T18:53:59.803Z,8.23
2018-12-27T18:56:27.083Z,8.90
2018-12-27T18:58:54.330Z,9.37
2018-12-27T19:01:21.570Z,8.10
2018-12-27T19:03:48.846Z,8.57
2018-12-27T19:06:16.089Z,8.87
2018-12-27T19:08:43.371Z,11.07
2018-12-27T19:11:28.740Z,24.37
2018-12-27T19:13:56.014Z,76.90
2018-12-27T19:16:23.531Z,65.60
2018-12-27T19:18:50.877Z,117.43
2018-12-27T19:21:18.135Z,73.10
2018-12-27T19:23:45.412Z,50.43
2018-12-27T19:26:13.124Z,66.47
2018-12-27T19:28:40.691Z,45.80
2018-12-27T19:31:07.947Z,43.07
2018-12-27T19:33:35.228Z,32.97
2018-12-27T19:36:02.482Z,33.67
2018-12-27T19:38:29.763Z,30.57
2018-12-27T19:40:57.310Z,26.87
2018-12-27T19:43:24.598Z,26.87
2018-12-27T19:45:51.885Z,27.70
2018-12-27T19:48:19.148Z,18.57
2018-12-27T19:50:46.699Z,17.77
2018-12-27T19:53:13.937Z,11.73
2018-12-27T19:55:41.269Z,11.83
2018-12-27T19:58:08.575Z,13.30
2018-12-27T20:00:35.854Z,13.03
2018-12-27T20:03:03.133Z,9.60
2018-12-27T20:05:30.379Z,8.20
2018-12-27T20:07:59.477Z,7.20
2018-12-27T20:10:26.686Z,7.13
2018-12-27T20:12:53.974Z,7.73
2018-12-27T20:15:21.212Z,9.00
2018-12-27T20:17:48.457Z,16.60
2018-12-27T20:20:15.745Z,23.90
2018-12-27T20:22:42.998Z,17.33
2018-12-27T20:25:10.277Z,18.03
2018-12-27T20:27:37.909Z,20.33
2018-12-27T20:30:06.769Z,20.53
2018-12-27T20:32:34.027Z,19.00
2018-12-27T20:35:01.310Z,24.33
2018-12-27T20:37:28.590Z,22.57
2018-12-27T20:39:55.879Z,24.27
2018-12-27T20:42:23.127Z,22.57
2018-12-27T20:44:50.414Z,21.03
2018-12-27T20:47:17.666Z,20.50
2018-12-27T20:49:44.941Z,20.63
2018-12-27T20:52:12.190Z,19.50
2018-12-27T20:54:39.743Z,17.70
2018-12-27T20:57:07.027Z,16.30
2018-12-27T20:59:34.280Z,22.63
2018-12-27T21:02:01.570Z,18.87
2018-12-27T21:04:28.837Z,15.67
2018-12-27T21:06:56.123Z,17.53
2018-12-27T21:09:23.373Z,20.30
2018-12-27T21:11:50.627Z,20.00
2018-12-27T21:14:17.901Z,24.30
2018-12-27T21:16:45.422Z,20.10
2018-12-27T21:19:12.707Z,25.20
2018-12-27T21:21:39.954Z,32.03
2018-12-27T21:24:07.226Z,26.10
2018-12-27T21:26:34.515Z,32.10
2018-12-27T21:29:02.023Z,35.60
2018-12-27T21:31:29.293Z,37.60
2018-12-27T21:33:56.549Z,28.87
2018-12-27T21:36:23.802Z,32.27
2018-12-27T21:38:51.077Z,22.17
2018-12-27T21:41:18.355Z,22.27
2018-12-27T21:43:45.897Z,24.70
2018-12-27T21:46:13.150Z,22.00
2018-12-27T21:48:40.689Z,21.07
2018-12-27T21:51:08.222Z,21.60
2018-12-27T21:53:35.477Z,18.07
2018-12-27T21:56:02.726Z,20.20
2018-12-27T21:58:30.005Z,18.13
2018-12-27T22:00:57.302Z,21.43
2018-12-27T22:03:24.551Z,18.23
2018-12-27T22:05:51.815Z,17.87
2018-12-27T22:08:19.093Z,19.60
2018-12-27T22:10:46.330Z,22.70
2018-12-27T22:13:13.610Z,19.03
2018-12-27T22:15:41.168Z,18.30
2018-12-27T22:18:08.428Z,16.73
2018-12-27T22:20:35.931Z,19.57
2018-12-27T22:23:03.210Z,19.00
2018-12-27T22:25:30.467Z,19.50
2018-12-27T22:27:57.746Z,16.37
2018-12-27T22:30:25.262Z,17.20
2018-12-27T22:32:52.533Z,16.30
2018-12-27T22:35:19.817Z,17.20
2018-12-27T22:37:47.103Z,14.97
2018-12-27T22:40:14.385Z,18.30
2018-12-27T22:42:41.657Z,13.17
2018-12-27T22:45:08.913Z,14.20
2018-12-27T22:47:36.434Z,13.23
2018-12-27T22:50:04.266Z,14.93
2018-12-27T22:52:31.842Z,13.87
2018-12-27T22:54:59.087Z,11.60
2018-12-27T22:57:26.367Z,17.50
2018-12-27T22:59:53.898Z,16.63
2018-12-27T23:02:21.158Z,19.97
2018-12-27T23:04:48.430Z,15.83
2018-12-27T23:07:15.714Z,14.93
2018-12-27T23:09:42.973Z,16.20
2018-12-27T23:12:10.325Z,17.83
2018-12-27T23:14:37.585Z,19.93
2018-12-27T23:17:04.866Z,15.80
2018-12-27T23:19:32.371Z,17.37
2018-12-27T23:21:59.721Z,18.90
2018-12-27T23:24:26.972Z,17.80
2018-12-27T23:26:54.475Z,18.80
2018-12-27T23:29:21.758Z,16.27
2018-12-27T23:31:49.006Z,17.07
2018-12-27T23:34:16.533Z,16.83
2018-12-27T23:36:43.817Z,16.90
2018-12-27T23:39:11.071Z,17.37
2018-12-27T23:41:38.611Z,17.23
2018-12-27T23:44:05.890Z,15.83
2018-12-27T23:46:33.146Z,18.13
2018-12-27T23:49:00.655Z,20.93
2018-12-27T23:51:28.008Z,28.57
2018-12-27T23:53:55.253Z,27.80
2018-12-27T23:56:22.782Z,28.50
2018-12-27T23:58:50.035Z,29.63
